West Finley, Pennsylvania
Current Conditions -  °F | °C
As of 12:35 AM on Monday 20 Oct 2014 (Local Time) from KAFJ Reporting Station
Clear Clear  
Wind Chill: 34°   Ceiling: Unl
Heat Index: 34°   Visibility: 10mi
Dew Point: 30°   Wind: 0mph
Humidity: 87%   Direction: NA
Pressure: 30.08"   Gusts: NA
Location:  39.99°N, 80.46°W
Report Text: KAFJ 200435Z AUTO 00000KT 10SM CLR 01/M01 A3008 RMK AO1
Loading
Personal Weather Stations






























Interactive Weather Map
Tropical Storm Tracking
New forecast layout! Learn more

10-Day Weather Forecast

Advertisements
Track Severe Weather on mobile